Superferry II — SWKV — position and weather

sailwx.info

Track history (hours):
 
Tides and Currents Weather Stations Pressure Air Temp Water Temp Dewpoint Dewpoint Depression Visibility Wind Speed Wind Dir Waves Ship Positions

Superferry II

Last reported at 2015-Mar-01 16:21 UTC. Time now 2015-Mar-01 19:27 UTC.
Position N 38°01' E 024°03'.

Length 122 m; draft 4.7 m.

Type: Passenger vessel. MMSI: 237001000.

Date/timePositionNaut miles runAvg speedWind from/ knotsBaromVisibWave heightAir tempDewpointWater temp
2015-Mar-01 16:21N 38°01' E 024°03'5015.5
2015-Mar-01 13:08N 37°38' E 024°59'1017.7
2015-Mar-01 12:33N 37°32' E 025°09'9 9.1
2015-Mar-01 11:34N 37°28' E 025°19'0 0.0
2015-Mar-01 10:33N 37°28' E 025°19'1212.1
2015-Mar-01 09:33N 37°33' E 025°06'5116.4
2015-Mar-01 06:26N 37°59' E 024°10'8 0.6
2015-Feb-28 16:27N 38°01' E 024°01'5015.8
2015-Feb-28 13:18N 37°39' E 024°57'1216.1
2015-Feb-28 12:33N 37°32' E 025°10'9 8.9
2015-Feb-28 11:33N 37°28' E 025°19'3 2.9
2015-Feb-28 10:33N 37°29' E 025°16'1111.0
2015-Feb-28 09:32N 37°35' E 025°04'4715.4
2015-Feb-28 06:30N 37°58' E 024°13'1010.7
2015-Feb-28 05:33N 38°01' E 024°01'0 0.0
2015-Feb-28 04:25N 38°01' E 024°01'0 0.0
2015-Feb-28 03:28N 38°01' E 024°01'0 0.0
2015-Feb-28 00:14N 38°01' E 024°01'0 0.0
2015-Feb-27 22:26N 38°01' E 024°01'0 0.0
2015-Feb-27 21:32N 38°01' E 024°01'0 0.0
2015-Feb-27 20:33N 38°01' E 024°01'0 0.0
2015-Feb-27 19:33N 38°01' E 024°01'0 0.0
2015-Feb-27 18:30N 38°01' E 024°01'0 0.0
2015-Feb-27 17:33N 38°01' E 024°01'1 1.2
2015-Feb-27 16:29N 38°01' E 024°02'4715.5
2015-Feb-27 13:28N 37°41' E 024°56'1415.2
2015-Feb-27 12:33N 37°32' E 025°09'9 9.0
2015-Feb-27 11:33N 37°28' E 025°19'0 0.5
2015-Feb-27 10:33N 37°28' E 025°19'1413.7
2015-Feb-27 09:33N 37°35' E 025°04'4615.3
2015-Feb-27 06:32N 37°58' E 024°14'9 0.7
2015-Feb-26 16:23N 38°01' E 024°02'4715.4
2015-Feb-26 13:20N 37°40' E 024°56'1317.4
2015-Feb-26 12:33N 37°32' E 025°09'9 9.1
2015-Feb-26 11:33N 37°28' E 025°19'0 0.0
2015-Feb-26 10:33N 37°28' E 025°19'1111.5
2015-Feb-26 09:33N 37°33' E 025°06'5316.1
2015-Feb-26 06:16N 37°60' E 024°08'5 0.4
2015-Feb-25 16:31N 38°01' E 024°02'4915.5
2015-Feb-25 13:19N 37°39' E 024°58'1114.9
2015-Feb-25 12:33N 37°32' E 025°10'9 8.9
2015-Feb-25 11:33N 37°28' E 025°19'3 3.1
2015-Feb-25 10:33N 37°29' E 025°16'11 9.9
2015-Feb-25 09:28N 37°34' E 025°04'4715.7
2015-Feb-25 06:30N 37°58' E 024°13'9 0.6
2015-Feb-24 16:24N 38°01' E 024°02'4815.3
2015-Feb-24 13:16N 37°40' E 024°57'1217.4
2015-Feb-24 12:33N 37°32' E 025°09'9 9.2
2015-Feb-24 11:33N 37°28' E 025°20'0 0.0
2015-Feb-24 10:33N 37°28' E 025°20'1111.0
2015-Feb-24 09:33N 37°33' E 025°07'5016.1
2015-Feb-24 06:27N 37°58' E 024°13'10 9.3
2015-Feb-24 05:22N 38°01' E 024°01'0 0.0
2015-Feb-24 04:28N 38°01' E 024°01'0 0.0
2015-Feb-24 03:30N 38°01' E 024°01'0 0.0
2015-Feb-24 02:33N 38°01' E 024°01'0 0.0
2015-Feb-24 01:33N 38°01' E 024°01'0 0.0
2015-Feb-24 00:33N 38°01' E 024°01'0 0.0
2015-Feb-23 23:33N 38°01' E 024°01'0 0.0
2015-Feb-23 22:32N 38°01' E 024°01'0 0.1
2015-Feb-23 21:31N 38°01' E 024°01'5 1.2
2015-Feb-23 17:33N 37°60' E 024°06'0 0.5
2015-Feb-23 16:33N 38°00' E 024°06'4515.0
2015-Feb-23 13:33N 37°40' E 024°57'1312.9
2015-Feb-23 12:33N 37°32' E 025°10'9 9.0
2015-Feb-23 11:33N 37°28' E 025°20'1 0.6
2015-Feb-23 10:33N 37°28' E 025°19'1413.6
2015-Feb-23 09:33N 37°35' E 025°04'4715.2
2015-Feb-23 06:25N 37°59' E 024°12'9 9.2
2015-Feb-23 05:25N 38°01' E 024°01'0 0.0
2015-Feb-23 03:33N 38°01' E 024°01'0 0.0
2015-Feb-23 02:33N 38°01' E 024°01'0 0.0
2015-Feb-23 01:33N 38°01' E 024°01'0 0.0
2015-Feb-23 00:33N 38°01' E 024°01'0 0.0
2015-Feb-22 23:31N 38°01' E 024°01'0 0.0
2015-Feb-22 22:31N 38°01' E 024°01'0 0.0
2015-Feb-22 21:33N 38°01' E 024°01'0 0.0
2015-Feb-22 20:33N 38°01' E 024°01'0 0.0
2015-Feb-22 19:33N 38°01' E 024°01'0 0.0
2015-Feb-22 18:33N 38°01' E 024°01'0 0.0
2015-Feb-22 17:32N 38°01' E 024°01'0 0.4
2015-Feb-22 16:31N 38°01' E 024°01'4915.0
2015-Feb-22 13:16N 37°40' E 024°57'1317.9
2015-Feb-22 12:33N 37°32' E 025°09'9 9.1
2015-Feb-22 11:33N 37°28' E 025°19'0 0.0
2015-Feb-22 10:33N 37°28' E 025°19'1313.2
2015-Feb-22 09:33N 37°34' E 025°05'4715.6
2015-Feb-22 06:32N 37°58' E 024°14'11 0.7
2015-Feb-21 16:26N 38°01' E 024°01'5015.6
2015-Feb-21 13:12N 37°39' E 024°58'1117.3
2015-Feb-21 12:33N 37°32' E 025°09'9 9.1
2015-Feb-21 11:33N 37°28' E 025°19'3 3.4
2015-Feb-21 10:33N 37°28' E 025°15'5814.5
2015-Feb-21 06:32N 37°59' E 024°12'8 0.8
2015-Feb-20 20:32N 38°01' E 024°03'1 0.2
2015-Feb-20 16:33N 38°01' E 024°04'5012.5
2015-Feb-20 12:33N 37°37' E 024°60'1312.8
2015-Feb-20 11:34N 37°30' E 025°13'0 0.3
2015-Feb-20 10:33N 37°30' E 025°13'5813.8
2015-Feb-20 06:22N 37°59' E 024°09'  
Track history (hours):
 
Tides and Currents Weather Stations Pressure Air Temp Water Temp Dewpoint Dewpoint Depression Visibility Wind Speed Wind Dir Waves Ship Positions

Superferry II

Last reported at 2015-Mar-01 16:21 UTC. Time now 2015-Mar-01 19:27 UTC.
Position N 38°01' E 024°03'.

Length 122 m; draft 4.7 m.

Type: Passenger vessel. MMSI: 237001000.

Date/timePositionNaut miles runAvg speedWind from/ knotsBaromVisibWave heightAir tempDewpointWater temp
2015-Mar-01 16:21N 38°01' E 024°03'5015.5
2015-Mar-01 13:08N 37°38' E 024°59'1017.7
2015-Mar-01 12:33N 37°32' E 025°09'9 9.1
2015-Mar-01 11:34N 37°28' E 025°19'0 0.0
2015-Mar-01 10:33N 37°28' E 025°19'1212.1
2015-Mar-01 09:33N 37°33' E 025°06'5116.4
2015-Mar-01 06:26N 37°59' E 024°10'8 0.6
2015-Feb-28 16:27N 38°01' E 024°01'5015.8
2015-Feb-28 13:18N 37°39' E 024°57'1216.1
2015-Feb-28 12:33N 37°32' E 025°10'9 8.9
2015-Feb-28 11:33N 37°28' E 025°19'3 2.9
2015-Feb-28 10:33N 37°29' E 025°16'1111.0
2015-Feb-28 09:32N 37°35' E 025°04'4715.4
2015-Feb-28 06:30N 37°58' E 024°13'1010.7
2015-Feb-28 05:33N 38°01' E 024°01'0 0.0
2015-Feb-28 04:25N 38°01' E 024°01'0 0.0
2015-Feb-28 03:28N 38°01' E 024°01'0 0.0
2015-Feb-28 00:14N 38°01' E 024°01'0 0.0
2015-Feb-27 22:26N 38°01' E 024°01'0 0.0
2015-Feb-27 21:32N 38°01' E 024°01'0 0.0
2015-Feb-27 20:33N 38°01' E 024°01'0 0.0
2015-Feb-27 19:33N 38°01' E 024°01'0 0.0
2015-Feb-27 18:30N 38°01' E 024°01'0 0.0
2015-Feb-27 17:33N 38°01' E 024°01'1 1.2
2015-Feb-27 16:29N 38°01' E 024°02'4715.5
2015-Feb-27 13:28N 37°41' E 024°56'1415.2
2015-Feb-27 12:33N 37°32' E 025°09'9 9.0
2015-Feb-27 11:33N 37°28' E 025°19'0 0.5
2015-Feb-27 10:33N 37°28' E 025°19'1413.7
2015-Feb-27 09:33N 37°35' E 025°04'4615.3
2015-Feb-27 06:32N 37°58' E 024°14'9 0.7
2015-Feb-26 16:23N 38°01' E 024°02'4715.4
2015-Feb-26 13:20N 37°40' E 024°56'1317.4
2015-Feb-26 12:33N 37°32' E 025°09'9 9.1
2015-Feb-26 11:33N 37°28' E 025°19'0 0.0
2015-Feb-26 10:33N 37°28' E 025°19'1111.5
2015-Feb-26 09:33N 37°33' E 025°06'5316.1
2015-Feb-26 06:16N 37°60' E 024°08'5 0.4
2015-Feb-25 16:31N 38°01' E 024°02'4915.5
2015-Feb-25 13:19N 37°39' E 024°58'1114.9
2015-Feb-25 12:33N 37°32' E 025°10'9 8.9
2015-Feb-25 11:33N 37°28' E 025°19'3 3.1
2015-Feb-25 10:33N 37°29' E 025°16'11 9.9
2015-Feb-25 09:28N 37°34' E 025°04'4715.7
2015-Feb-25 06:30N 37°58' E 024°13'9 0.6
2015-Feb-24 16:24N 38°01' E 024°02'4815.3
2015-Feb-24 13:16N 37°40' E 024°57'1217.4
2015-Feb-24 12:33N 37°32' E 025°09'9 9.2
2015-Feb-24 11:33N 37°28' E 025°20'0 0.0
2015-Feb-24 10:33N 37°28' E 025°20'1111.0
2015-Feb-24 09:33N 37°33' E 025°07'5016.1
2015-Feb-24 06:27N 37°58' E 024°13'10 9.3
2015-Feb-24 05:22N 38°01' E 024°01'0 0.0
2015-Feb-24 04:28N 38°01' E 024°01'0 0.0
2015-Feb-24 03:30N 38°01' E 024°01'0 0.0
2015-Feb-24 02:33N 38°01' E 024°01'0 0.0
2015-Feb-24 01:33N 38°01' E 024°01'0 0.0
2015-Feb-24 00:33N 38°01' E 024°01'0 0.0
2015-Feb-23 23:33N 38°01' E 024°01'0 0.0
2015-Feb-23 22:32N 38°01' E 024°01'0 0.1
2015-Feb-23 21:31N 38°01' E 024°01'5 1.2
2015-Feb-23 17:33N 37°60' E 024°06'0 0.5
2015-Feb-23 16:33N 38°00' E 024°06'4515.0
2015-Feb-23 13:33N 37°40' E 024°57'1312.9
2015-Feb-23 12:33N 37°32' E 025°10'9 9.0
2015-Feb-23 11:33N 37°28' E 025°20'1 0.6
2015-Feb-23 10:33N 37°28' E 025°19'1413.6
2015-Feb-23 09:33N 37°35' E 025°04'4715.2
2015-Feb-23 06:25N 37°59' E 024°12'9 9.2
2015-Feb-23 05:25N 38°01' E 024°01'0 0.0
2015-Feb-23 03:33N 38°01' E 024°01'0 0.0
2015-Feb-23 02:33N 38°01' E 024°01'0 0.0
2015-Feb-23 01:33N 38°01' E 024°01'0 0.0
2015-Feb-23 00:33N 38°01' E 024°01'0 0.0
2015-Feb-22 23:31N 38°01' E 024°01'0 0.0
2015-Feb-22 22:31N 38°01' E 024°01'0 0.0
2015-Feb-22 21:33N 38°01' E 024°01'0 0.0
2015-Feb-22 20:33N 38°01' E 024°01'0 0.0
2015-Feb-22 19:33N 38°01' E 024°01'0 0.0
2015-Feb-22 18:33N 38°01' E 024°01'0 0.0
2015-Feb-22 17:32N 38°01' E 024°01'0 0.4
2015-Feb-22 16:31N 38°01' E 024°01'4915.0
2015-Feb-22 13:16N 37°40' E 024°57'1317.9
2015-Feb-22 12:33N 37°32' E 025°09'9 9.1
2015-Feb-22 11:33N 37°28' E 025°19'0 0.0
2015-Feb-22 10:33N 37°28' E 025°19'1313.2
2015-Feb-22 09:33N 37°34' E 025°05'4715.6
2015-Feb-22 06:32N 37°58' E 024°14'11 0.7
2015-Feb-21 16:26N 38°01' E 024°01'5015.6
2015-Feb-21 13:12N 37°39' E 024°58'1117.3
2015-Feb-21 12:33N 37°32' E 025°09'9 9.1
2015-Feb-21 11:33N 37°28' E 025°19'3 3.4
2015-Feb-21 10:33N 37°28' E 025°15'5814.5
2015-Feb-21 06:32N 37°59' E 024°12'8 0.8
2015-Feb-20 20:32N 38°01' E 024°03'1 0.2
2015-Feb-20 16:33N 38°01' E 024°04'5012.5
2015-Feb-20 12:33N 37°37' E 024°60'1312.8
2015-Feb-20 11:34N 37°30' E 025°13'0 0.3
2015-Feb-20 10:33N 37°30' E 025°13'5813.8
2015-Feb-20 06:22N 37°59' E 024°09'  

Dump ship's entire track history